Time;durP1;ratioP1;P1;durP2;ratioP2;P2;SDS_P1;SDS_P2;PMS_P1;PMS_P2;Temp;Humidity;BMP_temperature;BMP_pressure;BME280_temperature;BME280_humidity;BME280_pressure;Samples;Min_cycle;Max_cycle;Signal;HPM_P1;HPM_P2
2022/01/02 00:02:12;;;;;;;49.08;40.67;;;;;;;;;;6118028;23;20389;-83
2022/01/02 00:04:46;;;;;;;49.13;41.25;;;;;;;;;;6115789;23;20367;-83
2022/01/02 00:07:16;;;;;;;50.35;42.30;;;;;;;;;;6113158;23;20872;-83
2022/01/02 00:09:46;;;;;;;46.28;38.95;;;;;;;;;;6114577;23;20666;-83
2022/01/02 00:12:15;;;;;;;49.50;40.30;;;;;;;;;;6117741;23;20373;-84
2022/01/02 00:14:44;;;;;;;49.47;41.07;;;;;;;;;;6117646;23;20732;-83
2022/01/02 00:17:16;;;;;;;50.38;41.92;;;;;;;;;;6117082;23;20744;-84
2022/01/02 00:19:51;;;;;;;52.35;42.97;;;;;;;;;;6117665;23;20371;-83
2022/01/02 00:22:20;;;;;;;50.30;41.65;;;;;;;;;;6118215;23;20450;-84
2022/01/02 00:24:47;;;;;;;48.53;41.08;;;;;;;;;;6118485;23;20367;-83
2022/01/02 00:27:16;;;;;;;47.45;40.17;;;;;;;;;;6118454;23;20359;-83
2022/01/02 00:29:44;;;;;;;47.90;39.22;;;;;;;;;;6117268;23;20371;-83
2022/01/02 00:32:14;;;;;;;47.90;39.42;;;;;;;;;;6117193;23;20478;-84
2022/01/02 00:34:42;;;;;;;47.92;38.97;;;;;;;;;;6118102;23;20863;-83
2022/01/02 00:37:09;;;;;;;45.08;37.95;;;;;;;;;;6118017;23;20538;-83
2022/01/02 00:39:37;;;;;;;46.27;38.47;;;;;;;;;;6117977;23;20454;-83
2022/01/02 00:42:08;;;;;;;46.15;38.15;;;;;;;;;;6116790;23;20371;-83
2022/01/02 00:44:46;;;;;;;45.25;38.40;;;;;;;;;;6117631;23;20423;-83
2022/01/02 00:47:21;;;;;;;46.60;39.50;;;;;;;;;;6117497;23;20406;-83
2022/01/02 00:50:04;;;;;;;43.72;37.58;;;;;;;;;;6117787;23;20371;-83
2022/01/02 00:52:33;;;;;;;45.42;37.45;;;;;;;;;;6117111;23;20371;-83
2022/01/02 00:55:01;;;;;;;44.45;36.90;;;;;;;;;;6116364;23;20836;-83
2022/01/02 00:57:34;;;;;;;44.20;35.80;;;;;;;;;;6114103;23;20367;-84
2022/01/02 01:00:09;;;;;;;44.60;36.20;;;;;;;;;;6112502;23;20810;-83
2022/01/02 01:02:41;;;;;;;44.97;36.90;;;;;;;;;;6114247;23;20386;-83
2022/01/02 01:05:09;;;;;;;41.75;35.10;;;;;;;;;;6115739;23;20635;-83
2022/01/02 01:07:38;;;;;;;43.30;36.20;;;;;;;;;;6116838;23;20457;-83
2022/01/02 01:10:08;;;;;;;41.03;35.28;;;;;;;;;;6117057;23;20367;-83
2022/01/02 01:12:35;;;;;;;40.55;34.00;;;;;;;;;;6116682;23;20375;-83
2022/01/02 01:15:03;;;;;;;42.28;35.08;;;;;;;;;;6116388;23;20370;-83
2022/01/02 01:17:31;;;;;;;44.70;36.05;;;;;;;;;;6117494;23;20367;-83
2022/01/02 01:19:59;;;;;;;48.20;36.97;;;;;;;;;;6116880;23;20367;-83
2022/01/02 01:22:26;;;;;;;49.75;37.10;;;;;;;;;;6118147;23;20418;-83
2022/01/02 01:24:53;;;;;;;47.15;36.92;;;;;;;;;;6116358;23;20935;-84
2022/01/02 01:27:20;;;;;;;45.80;36.42;;;;;;;;;;6115962;23;20368;-83
2022/01/02 01:29:47;;;;;;;48.42;37.33;;;;;;;;;;6115895;23;20369;-83
2022/01/02 01:32:13;;;;;;;50.97;37.92;;;;;;;;;;6116129;23;20852;-84
2022/01/02 01:34:40;;;;;;;50.35;37.92;;;;;;;;;;6117543;23;20441;-83
2022/01/02 01:37:09;;;;;;;59.17;39.30;;;;;;;;;;6115312;23;20848;-83
2022/01/02 01:39:35;;;;;;;80.68;37.85;;;;;;;;;;6118198;23;20371;-83
2022/01/02 01:42:08;;;;;;;99.30;37.50;;;;;;;;;;6116718;23;20782;-83
2022/01/02 01:47:16;;;;;;;91.57;36.15;;;;;;;;;;6079342;23;20371;-84
2022/01/02 01:49:43;;;;;;;76.88;35.58;;;;;;;;;;6118532;23;20619;-83
2022/01/02 01:52:11;;;;;;;81.35;33.55;;;;;;;;;;6117120;23;20371;-83
2022/01/02 01:54:38;;;;;;;90.55;34.00;;;;;;;;;;6118002;23;20363;-83
2022/01/02 01:57:06;;;;;;;90.97;34.53;;;;;;;;;;6116912;23;20674;-83
2022/01/02 01:59:32;;;;;;;94.85;35.42;;;;;;;;;;6117212;23;21098;-83
2022/01/02 02:01:59;;;;;;;76.75;36.05;;;;;;;;;;6117252;23;20441;-83
2022/01/02 02:04:28;;;;;;;48.35;32.05;;;;;;;;;;6118221;23;20391;-83
2022/01/02 02:06:56;;;;;;;47.05;30.77;;;;;;;;;;6116660;23;20454;-83
2022/01/02 02:09:28;;;;;;;39.80;30.52;;;;;;;;;;6117530;23;20417;-83
2022/01/02 02:11:59;;;;;;;61.72;32.00;;;;;;;;;;6116934;23;20673;-83
2022/01/02 02:14:27;;;;;;;51.08;30.48;;;;;;;;;;6117267;23;20382;-83
2022/01/02 02:16:54;;;;;;;54.35;32.90;;;;;;;;;;6117246;23;20371;-83
2022/01/02 02:19:20;;;;;;;48.90;34.23;;;;;;;;;;6117089;23;20473;-83
2022/01/02 02:21:49;;;;;;;48.78;33.85;;;;;;;;;;6117914;23;20367;-83
2022/01/02 02:24:17;;;;;;;77.78;34.25;;;;;;;;;;6117065;23;20469;-83
2022/01/02 02:26:45;;;;;;;72.45;35.42;;;;;;;;;;6117522;23;20366;-83
2022/01/02 02:29:12;;;;;;;63.33;36.92;;;;;;;;;;6116554;23;20363;-83
2022/01/02 02:31:39;;;;;;;105.18;37.22;;;;;;;;;;6114002;23;20927;-83
2022/01/02 02:34:05;;;;;;;87.45;36.90;;;;;;;;;;6113687;23;20785;-83
2022/01/02 02:36:32;;;;;;;54.95;35.55;;;;;;;;;;6117058;23;20363;-83
2022/01/02 02:39:01;;;;;;;57.40;35.80;;;;;;;;;;6116507;23;20423;-83
2022/01/02 02:41:31;;;;;;;93.20;36.03;;;;;;;;;;6117251;23;20425;-82
2022/01/02 02:44:05;;;;;;;96.18;35.35;;;;;;;;;;6116279;23;20387;-83
2022/01/02 02:49:16;;;;;;;71.60;35.15;;;;;;;;;;6116647;23;20362;-83
2022/01/02 02:51:49;;;;;;;71.30;34.38;;;;;;;;;;6117341;23;20363;-82
2022/01/02 02:54:22;;;;;;;99.60;37.00;;;;;;;;;;6116762;23;20463;-83
2022/01/02 02:56:58;;;;;;;76.65;36.28;;;;;;;;;;6117146;23;20367;-82
2022/01/02 02:59:25;;;;;;;93.47;37.97;;;;;;;;;;6116616;23;20367;-83
2022/01/02 03:01:53;;;;;;;61.70;35.40;;;;;;;;;;6117305;23;20430;-83
2022/01/02 03:04:20;;;;;;;72.93;34.90;;;;;;;;;;6117672;23;20386;-83
2022/01/02 03:06:48;;;;;;;88.28;35.53;;;;;;;;;;6117189;23;20749;-83
2022/01/02 03:09:19;;;;;;;78.43;34.60;;;;;;;;;;6117653;23;20371;-83
2022/01/02 03:11:47;;;;;;;83.00;32.60;;;;;;;;;;6117413;23;20373;-83
2022/01/02 03:14:14;;;;;;;66.43;33.25;;;;;;;;;;6117553;23;20371;-82
2022/01/02 03:16:41;;;;;;;72.65;32.72;;;;;;;;;;6117630;23;20363;-83
2022/01/02 03:19:08;;;;;;;115.50;32.83;;;;;;;;;;6116987;23;20426;-83
2022/01/02 03:21:35;;;;;;;113.93;35.15;;;;;;;;;;6117490;23;20367;-83
2022/01/02 03:24:02;;;;;;;80.60;35.00;;;;;;;;;;6116205;23;20394;-83
2022/01/02 03:26:29;;;;;;;87.00;35.20;;;;;;;;;;6117416;23;20367;-83
2022/01/02 03:28:57;;;;;;;87.50;34.33;;;;;;;;;;6116742;23;20425;-83
2022/01/02 03:31:24;;;;;;;48.22;32.10;;;;;;;;;;6116486;23;20434;-83
2022/01/02 03:33:51;;;;;;;66.00;31.50;;;;;;;;;;6116610;23;20359;-83
2022/01/02 03:36:19;;;;;;;73.90;32.53;;;;;;;;;;6117578;23;20911;-83
2022/01/02 03:38:46;;;;;;;67.90;30.77;;;;;;;;;;6117371;23;20731;-83
2022/01/02 03:41:13;;;;;;;48.90;29.95;;;;;;;;;;6116531;23;20891;-83
2022/01/02 03:43:40;;;;;;;79.95;30.48;;;;;;;;;;6116416;23;20383;-83
2022/01/02 03:46:08;;;;;;;81.90;29.65;;;;;;;;;;6116466;23;20646;-82
2022/01/02 03:48:35;;;;;;;55.28;29.70;;;;;;;;;;6116137;23;20446;-83
2022/01/02 03:51:02;;;;;;;53.55;29.30;;;;;;;;;;6116380;23;20367;-83
2022/01/02 03:53:29;;;;;;;68.68;29.73;;;;;;;;;;6115685;23;20374;-82
2022/01/02 03:55:56;;;;;;;59.43;28.73;;;;;;;;;;6115020;23;20363;-83
2022/01/02 03:58:22;;;;;;;85.80;29.17;;;;;;;;;;6114624;23;20363;-83
2022/01/02 04:00:49;;;;;;;57.73;28.80;;;;;;;;;;6114101;23;20857;-83
2022/01/02 04:03:18;;;;;;;52.20;29.40;;;;;;;;;;6115074;23;20363;-83
2022/01/02 04:05:45;;;;;;;44.80;28.15;;;;;;;;;;6114595;23;20390;-83
2022/01/02 04:08:12;;;;;;;39.92;29.35;;;;;;;;;;6115730;23;20363;-83
2022/01/02 04:10:39;;;;;;;40.42;28.73;;;;;;;;;;6116214;23;20359;-83
2022/01/02 04:13:07;;;;;;;37.83;28.75;;;;;;;;;;6115668;23;20375;-83
2022/01/02 04:15:34;;;;;;;42.37;28.50;;;;;;;;;;6115216;23;20367;-83
2022/01/02 04:18:01;;;;;;;34.45;28.52;;;;;;;;;;6116432;23;20451;-83
2022/01/02 04:20:30;;;;;;;46.00;29.20;;;;;;;;;;6116742;23;20363;-83
2022/01/02 04:22:56;;;;;;;39.83;28.48;;;;;;;;;;6116515;23;20367;-83
2022/01/02 04:25:23;;;;;;;47.35;28.90;;;;;;;;;;6117484;23;20387;-82
2022/01/02 04:27:50;;;;;;;48.30;28.77;;;;;;;;;;6116690;23;20445;-82
2022/01/02 04:30:17;;;;;;;67.32;29.42;;;;;;;;;;6118144;23;20756;-83
2022/01/02 04:32:44;;;;;;;63.00;29.60;;;;;;;;;;6117936;23;20461;-83
2022/01/02 04:35:11;;;;;;;64.95;31.55;;;;;;;;;;6130945;23;20367;-82
2022/01/02 04:37:39;;;;;;;68.35;29.73;;;;;;;;;;6143676;23;20347;-82
2022/01/02 04:40:07;;;;;;;38.42;28.13;;;;;;;;;;6117771;23;20371;-82
2022/01/02 04:42:34;;;;;;;41.90;29.33;;;;;;;;;;6118208;23;20366;-82
2022/01/02 04:45:01;;;;;;;51.60;27.00;;;;;;;;;;6117953;23;20387;-83
2022/01/02 04:47:28;;;;;;;49.95;26.50;;;;;;;;;;6118813;23;20688;-83
2022/01/02 04:49:55;;;;;;;45.35;28.25;;;;;;;;;;6117956;23;20732;-83
2022/01/02 04:52:22;;;;;;;73.72;29.33;;;;;;;;;;6118054;23;20374;-83
2022/01/02 04:54:50;;;;;;;149.57;31.33;;;;;;;;;;6117921;23;20383;-82
2022/01/02 04:57:17;;;;;;;132.50;29.95;;;;;;;;;;6117963;23;20371;-83
2022/01/02 04:59:43;;;;;;;56.67;27.13;;;;;;;;;;6118293;23;20371;-83
2022/01/02 05:02:10;;;;;;;54.30;25.55;;;;;;;;;;6117577;23;20367;-82
2022/01/02 05:04:37;;;;;;;40.38;25.80;;;;;;;;;;6116626;23;20390;-83
2022/01/02 05:07:05;;;;;;;36.50;25.85;;;;;;;;;;6116506;23;20755;-83
2022/01/02 05:09:32;;;;;;;71.70;27.80;;;;;;;;;;6117044;23;20370;-83
2022/01/02 05:12:00;;;;;;;42.67;26.77;;;;;;;;;;6117092;23;20363;-83
2022/01/02 05:14:27;;;;;;;52.05;27.33;;;;;;;;;;6117361;23;20359;-83
2022/01/02 05:16:54;;;;;;;39.85;27.00;;;;;;;;;;6117214;23;20379;-83
2022/01/02 05:19:21;;;;;;;38.15;24.67;;;;;;;;;;6118097;23;20371;-83
2022/01/02 05:21:47;;;;;;;31.17;24.95;;;;;;;;;;6117052;23;20434;-83
2022/01/02 05:24:14;;;;;;;57.72;25.27;;;;;;;;;;6117427;23;20386;-84
2022/01/02 05:26:41;;;;;;;85.05;27.20;;;;;;;;;;6117346;23;20891;-83
2022/01/02 05:29:09;;;;;;;41.30;25.13;;;;;;;;;;6116897;23;20485;-83
2022/01/02 05:31:36;;;;;;;34.53;25.33;;;;;;;;;;6117305;23;20366;-83
2022/01/02 05:34:03;;;;;;;37.97;25.65;;;;;;;;;;6116753;23;20422;-83
2022/01/02 05:36:30;;;;;;;30.17;24.03;;;;;;;;;;6118152;23;20390;-83
2022/01/02 05:38:56;;;;;;;62.85;26.65;;;;;;;;;;6116397;23;20371;-82
2022/01/02 05:41:26;;;;;;;34.63;26.03;;;;;;;;;;6117542;23;20895;-83
2022/01/02 05:43:53;;;;;;;42.45;26.00;;;;;;;;;;6116533;23;20375;-83
2022/01/02 05:46:21;;;;;;;43.65;26.50;;;;;;;;;;6117404;23;20394;-83
2022/01/02 05:48:48;;;;;;;42.03;27.40;;;;;;;;;;6117068;23;20435;-82
2022/01/02 05:51:15;;;;;;;40.33;27.50;;;;;;;;;;6117474;23;20729;-83
2022/01/02 05:53:41;;;;;;;37.05;28.02;;;;;;;;;;6117523;23;20820;-82
2022/01/02 05:56:08;;;;;;;40.95;27.95;;;;;;;;;;6116964;23;20377;-83
2022/01/02 05:58:35;;;;;;;54.60;29.50;;;;;;;;;;6116762;23;20419;-83
2022/01/02 06:01:03;;;;;;;49.53;29.65;;;;;;;;;;6116296;23;20760;-83
2022/01/02 06:03:31;;;;;;;38.88;28.35;;;;;;;;;;6117257;23;20422;-83
2022/01/02 06:05:58;;;;;;;41.22;28.95;;;;;;;;;;6116052;23;20391;-83
2022/01/02 06:08:24;;;;;;;49.88;27.67;;;;;;;;;;6116499;23;20729;-83
2022/01/02 06:10:51;;;;;;;38.00;27.63;;;;;;;;;;6116958;23;20363;-82
2022/01/02 06:13:18;;;;;;;42.53;27.75;;;;;;;;;;6117389;23;20374;-83
2022/01/02 06:15:45;;;;;;;41.42;27.52;;;;;;;;;;6116422;23;20370;-83
2022/01/02 06:18:12;;;;;;;38.75;27.95;;;;;;;;;;6117644;23;20364;-82
2022/01/02 06:20:40;;;;;;;33.15;26.75;;;;;;;;;;6116711;23;20370;-83
2022/01/02 06:23:07;;;;;;;36.97;27.52;;;;;;;;;;6116573;23;20367;-83
2022/01/02 06:25:34;;;;;;;37.88;27.17;;;;;;;;;;6116332;23;20399;-82
2022/01/02 06:28:01;;;;;;;32.80;26.60;;;;;;;;;;6116248;23;20386;-83
2022/01/02 06:30:28;;;;;;;34.63;26.45;;;;;;;;;;6116001;23;20430;-83
2022/01/02 06:32:55;;;;;;;50.78;28.85;;;;;;;;;;6115889;23;20423;-83
2022/01/02 06:35:24;;;;;;;36.88;27.90;;;;;;;;;;6116218;23;20685;-83
2022/01/02 06:37:53;;;;;;;33.23;26.83;;;;;;;;;;6116092;23;20371;-83
2022/01/02 06:40:20;;;;;;;34.33;26.65;;;;;;;;;;6116389;23;20366;-83
2022/01/02 06:42:48;;;;;;;45.35;26.30;;;;;;;;;;6115841;23;20717;-83
2022/01/02 06:45:15;;;;;;;32.38;26.27;;;;;;;;;;6116388;23;20486;-83
2022/01/02 06:47:42;;;;;;;37.97;27.17;;;;;;;;;;6116253;23;20525;-83
2022/01/02 06:50:12;;;;;;;44.10;28.98;;;;;;;;;;6115231;23;20403;-83
2022/01/02 06:52:38;;;;;;;42.50;28.08;;;;;;;;;;6116681;23;20757;-82
2022/01/02 06:55:08;;;;;;;42.13;30.67;;;;;;;;;;6115815;23;20371;-83
2022/01/02 06:57:34;;;;;;;37.80;28.65;;;;;;;;;;6115811;23;20434;-82
2022/01/02 07:00:01;;;;;;;39.63;27.98;;;;;;;;;;6115785;23;20422;-83
2022/01/02 07:02:28;;;;;;;37.60;27.90;;;;;;;;;;6116221;23;20367;-82
2022/01/02 07:04:55;;;;;;;40.50;26.98;;;;;;;;;;6115266;23;20379;-83
2022/01/02 07:07:22;;;;;;;33.63;27.52;;;;;;;;;;6115988;23;20912;-82
2022/01/02 07:09:48;;;;;;;37.10;27.38;;;;;;;;;;6116003;23;20384;-82
2022/01/02 07:12:17;;;;;;;34.15;27.83;;;;;;;;;;6116256;23;20363;-82
2022/01/02 07:14:43;;;;;;;35.80;28.35;;;;;;;;;;6116258;23;20367;-83
2022/01/02 07:17:10;;;;;;;39.08;28.88;;;;;;;;;;6115805;23;21171;-83
2022/01/02 07:19:37;;;;;;;39.42;29.35;;;;;;;;;;6116073;23;20860;-83
2022/01/02 07:22:05;;;;;;;40.88;28.98;;;;;;;;;;6115634;23;20466;-82
2022/01/02 07:24:33;;;;;;;36.78;28.85;;;;;;;;;;6122618;23;20367;-82
2022/01/02 07:27:00;;;;;;;54.03;29.50;;;;;;;;;;6142881;23;20443;-82
2022/01/02 07:29:29;;;;;;;36.88;29.48;;;;;;;;;;6121265;23;20434;-82
2022/01/02 07:31:55;;;;;;;36.83;27.90;;;;;;;;;;6116103;23;20382;-82
2022/01/02 07:34:22;;;;;;;49.65;30.10;;;;;;;;;;6115932;23;20368;-82
2022/01/02 07:36:49;;;;;;;61.17;31.63;;;;;;;;;;6116288;23;21165;-82
2022/01/02 07:39:16;;;;;;;48.00;31.25;;;;;;;;;;6115728;23;20914;-83
2022/01/02 07:41:43;;;;;;;41.75;31.58;;;;;;;;;;6116344;23;20375;-83
2022/01/02 07:44:10;;;;;;;67.40;33.73;;;;;;;;;;6117032;23;20467;-83
2022/01/02 07:46:38;;;;;;;79.82;34.20;;;;;;;;;;6118427;23;20397;-82
2022/01/02 07:49:05;;;;;;;56.60;34.47;;;;;;;;;;6116960;23;20835;-82
2022/01/02 07:51:32;;;;;;;58.60;34.50;;;;;;;;;;6118945;23;20359;-83
2022/01/02 07:54:00;;;;;;;42.75;33.58;;;;;;;;;;6117937;23;20874;-83
2022/01/02 07:56:28;;;;;;;81.57;36.10;;;;;;;;;;6117979;23;20370;-83
2022/01/02 07:58:58;;;;;;;101.50;37.43;;;;;;;;;;6117871;23;20374;-82
2022/01/02 08:01:25;;;;;;;57.50;35.75;;;;;;;;;;6118509;23;20398;-82
2022/01/02 08:03:54;;;;;;;71.60;35.70;;;;;;;;;;6117723;23;20367;-82
2022/01/02 08:06:20;;;;;;;51.35;33.88;;;;;;;;;;6117485;23;20401;-83
2022/01/02 08:08:47;;;;;;;50.60;35.97;;;;;;;;;;6118067;23;20435;-82
2022/01/02 08:11:15;;;;;;;50.65;35.38;;;;;;;;;;6118285;23;20422;-83
2022/01/02 08:13:42;;;;;;;54.17;35.37;;;;;;;;;;6118203;23;20488;-84
2022/01/02 08:16:09;;;;;;;65.53;37.30;;;;;;;;;;6117257;23;20379;-83
2022/01/02 08:18:36;;;;;;;97.80;39.20;;;;;;;;;;6117566;23;20450;-83
2022/01/02 08:21:04;;;;;;;69.03;38.67;;;;;;;;;;6117537;23;20363;-83
2022/01/02 08:23:31;;;;;;;50.57;36.70;;;;;;;;;;6117766;23;20468;-83
2022/01/02 08:25:58;;;;;;;87.88;36.83;;;;;;;;;;6116813;23;20449;-83
2022/01/02 08:28:25;;;;;;;66.35;38.30;;;;;;;;;;6118064;23;20375;-82
2022/01/02 08:30:52;;;;;;;65.82;37.78;;;;;;;;;;6117362;23;20431;-82
2022/01/02 08:33:19;;;;;;;114.15;40.25;;;;;;;;;;6117757;23;20418;-83
2022/01/02 08:35:48;;;;;;;83.15;37.85;;;;;;;;;;6116817;23;20363;-83
2022/01/02 08:38:17;;;;;;;53.70;36.83;;;;;;;;;;6114889;23;20457;-83
2022/01/02 08:40:44;;;;;;;58.85;37.72;;;;;;;;;;6117069;23;20371;-83
2022/01/02 08:43:11;;;;;;;60.70;37.42;;;;;;;;;;6116660;23;20370;-83
2022/01/02 08:45:39;;;;;;;79.60;39.83;;;;;;;;;;6116030;23;20474;-83
2022/01/02 08:48:06;;;;;;;90.35;40.42;;;;;;;;;;6117258;23;20367;-82
2022/01/02 08:50:34;;;;;;;82.78;41.25;;;;;;;;;;6117269;23;20410;-84
2022/01/02 08:53:01;;;;;;;59.85;39.40;;;;;;;;;;6117243;23;20367;-83
2022/01/02 08:55:29;;;;;;;71.25;39.85;;;;;;;;;;6115113;23;20371;-83
2022/01/02 08:57:56;;;;;;;86.93;40.27;;;;;;;;;;6115199;23;20772;-83
2022/01/02 09:00:23;;;;;;;68.18;39.90;;;;;;;;;;6116061;23;20371;-83
2022/01/02 09:02:50;;;;;;;57.10;40.58;;;;;;;;;;6115616;23;20876;-83
2022/01/02 09:05:18;;;;;;;63.75;41.08;;;;;;;;;;6115773;23;20488;-83
2022/01/02 09:07:45;;;;;;;117.95;42.65;;;;;;;;;;6115685;23;20927;-83
2022/01/02 09:10:14;;;;;;;95.88;44.40;;;;;;;;;;6113671;23;20733;-83
2022/01/02 09:12:42;;;;;;;70.22;43.22;;;;;;;;;;6116375;23;20452;-83
2022/01/02 09:15:09;;;;;;;90.22;44.35;;;;;;;;;;6116096;23;20426;-83
2022/01/02 09:17:36;;;;;;;118.23;44.57;;;;;;;;;;6116829;23;20374;-83
2022/01/02 09:20:04;;;;;;;106.05;46.83;;;;;;;;;;6116210;23;20768;-83
2022/01/02 09:22:31;;;;;;;126.75;46.42;;;;;;;;;;6116999;23;20375;-83
2022/01/02 09:24:57;;;;;;;76.03;44.78;;;;;;;;;;6115645;23;20395;-83
2022/01/02 09:27:24;;;;;;;80.63;45.40;;;;;;;;;;6116836;23;20390;-83
2022/01/02 09:29:52;;;;;;;72.70;45.80;;;;;;;;;;6114583;23;20748;-84
2022/01/02 09:32:19;;;;;;;142.45;47.15;;;;;;;;;;6116764;23;20371;-83
2022/01/02 09:34:46;;;;;;;142.25;48.90;;;;;;;;;;6116591;23;20367;-83
2022/01/02 09:37:13;;;;;;;121.18;50.20;;;;;;;;;;6116448;23;20462;-83
2022/01/02 09:39:40;;;;;;;119.73;47.70;;;;;;;;;;6116458;23;20367;-83
2022/01/02 09:42:07;;;;;;;96.93;48.10;;;;;;;;;;6116106;23;20748;-83
2022/01/02 09:44:34;;;;;;;79.32;44.88;;;;;;;;;;6115640;23;20745;-83
2022/01/02 09:47:03;;;;;;;99.30;46.00;;;;;;;;;;6116533;23;20485;-83
2022/01/02 09:49:32;;;;;;;83.47;46.58;;;;;;;;;;6116582;23;20418;-82
2022/01/02 09:51:59;;;;;;;118.93;44.38;;;;;;;;;;6115367;23;20638;-83
2022/01/02 09:54:26;;;;;;;117.32;47.92;;;;;;;;;;6114414;23;20732;-83
2022/01/02 09:56:53;;;;;;;154.70;49.20;;;;;;;;;;6114902;23;20372;-83
2022/01/02 09:59:19;;;;;;;148.30;47.63;;;;;;;;;;6114625;23;20371;-83
2022/01/02 10:01:46;;;;;;;108.35;46.90;;;;;;;;;;6113794;23;20874;-83
2022/01/02 10:04:15;;;;;;;152.03;47.33;;;;;;;;;;6114113;23;20458;-83
2022/01/02 10:06:46;;;;;;;121.38;46.95;;;;;;;;;;6114473;23;20371;-83
2022/01/02 10:09:29;;;;;;;103.13;45.70;;;;;;;;;;6115108;23;20371;-82
2022/01/02 10:12:20;;;;;;;121.07;46.25;;;;;;;;;;6112898;23;20374;-83
2022/01/02 10:14:47;;;;;;;120.95;46.78;;;;;;;;;;6112960;23;20660;-83
2022/01/02 10:17:13;;;;;;;157.05;47.75;;;;;;;;;;6114856;23;20450;-82
2022/01/02 10:19:42;;;;;;;152.55;47.63;;;;;;;;;;6141886;23;20422;-83
2022/01/02 10:22:09;;;;;;;135.93;49.00;;;;;;;;;;6126417;23;20371;-82
2022/01/02 10:24:37;;;;;;;132.65;51.45;;;;;;;;;;6115285;23;20418;-83
2022/01/02 10:27:13;;;;;;;106.18;67.15;;;;;;;;;;6114181;23;20449;-83
2022/01/02 10:29:46;;;;;;;118.70;47.63;;;;;;;;;;6116294;23;20418;-83
2022/01/02 10:32:30;;;;;;;140.52;48.20;;;;;;;;;;6116017;23;20868;-82
2022/01/02 10:35:14;;;;;;;141.20;58.17;;;;;;;;;;6115911;23;20375;-83
2022/01/02 10:37:41;;;;;;;90.70;49.63;;;;;;;;;;6115881;23;20367;-83
2022/01/02 10:40:25;;;;;;;122.82;47.88;;;;;;;;;;6115830;23;20363;-83
2022/01/02 10:42:52;;;;;;;129.50;48.80;;;;;;;;;;6115944;23;20577;-82
2022/01/02 10:45:34;;;;;;;147.02;49.55;;;;;;;;;;6116283;23;20362;-83
2022/01/02 10:48:01;;;;;;;127.90;47.95;;;;;;;;;;6114798;23;20378;-83
2022/01/02 10:50:29;;;;;;;95.38;46.97;;;;;;;;;;6114730;23;20371;-82
2022/01/02 10:52:56;;;;;;;91.90;45.50;;;;;;;;;;6115732;23;20466;-81
2022/01/02 10:55:25;;;;;;;105.40;47.77;;;;;;;;;;6116403;23;20855;-81
2022/01/02 10:57:53;;;;;;;124.53;50.13;;;;;;;;;;6112816;23;20721;-79
2022/01/02 11:00:21;;;;;;;97.45;49.13;;;;;;;;;;6114706;23;20409;-80
2022/01/02 11:02:49;;;;;;;92.60;47.60;;;;;;;;;;6114506;23;20418;-79
2022/01/02 11:05:18;;;;;;;109.20;50.25;;;;;;;;;;6114905;23;20736;-79
2022/01/02 11:07:48;;;;;;;94.20;49.43;;;;;;;;;;6116795;23;20915;-80
2022/01/02 11:10:18;;;;;;;90.75;49.75;;;;;;;;;;6116414;23;20695;-79
2022/01/02 11:12:46;;;;;;;113.13;53.97;;;;;;;;;;6116844;23;20418;-79
2022/01/02 11:15:16;;;;;;;85.03;53.13;;;;;;;;;;6116566;23;20382;-80
2022/01/02 11:17:43;;;;;;;137.60;48.88;;;;;;;;;;6117317;23;20363;-80
2022/01/02 11:20:12;;;;;;;126.88;49.25;;;;;;;;;;6117162;23;20367;-80
2022/01/02 11:22:45;;;;;;;116.60;49.85;;;;;;;;;;6119311;23;20847;-80
2022/01/02 11:25:21;;;;;;;122.05;53.10;;;;;;;;;;6118452;23;20724;-79
2022/01/02 11:27:53;;;;;;;105.28;51.75;;;;;;;;;;6116809;23;20386;-79
2022/01/02 11:30:40;;;;;;;107.47;49.50;;;;;;;;;;6117546;23;20461;-81
2022/01/02 11:33:09;;;;;;;86.82;49.13;;;;;;;;;;6117719;23;20752;-80
2022/01/02 11:35:38;;;;;;;99.85;50.00;;;;;;;;;;6117232;23;20374;-80
2022/01/02 11:38:06;;;;;;;100.10;51.15;;;;;;;;;;6117033;23;20367;-79
2022/01/02 11:40:57;;;;;;;119.10;51.13;;;;;;;;;;6116714;23;20371;-80
2022/01/02 11:43:53;;;;;;;93.03;49.17;;;;;;;;;;6116518;23;20472;-81
2022/01/02 11:46:22;;;;;;;78.60;49.60;;;;;;;;;;6117654;23;20406;-82
2022/01/02 11:49:18;;;;;;;98.03;51.47;;;;;;;;;;6116924;23;20737;-81
2022/01/02 11:52:09;;;;;;;90.67;48.97;;;;;;;;;;6103195;23;20527;-81
2022/01/02 11:54:58;;;;;;;89.88;50.15;;;;;;;;;;6116331;23;21224;-81
2022/01/02 11:57:54;;;;;;;91.28;51.10;;;;;;;;;;6117300;23;20421;-81
2022/01/02 12:00:39;;;;;;;71.38;48.03;;;;;;;;;;6117541;23;20367;-80
2022/01/02 12:03:07;;;;;;;71.88;48.92;;;;;;;;;;6117927;23;20426;-80
2022/01/02 12:05:34;;;;;;;79.72;51.28;;;;;;;;;;6118104;23;20804;-81
2022/01/02 12:08:01;;;;;;;82.30;50.53;;;;;;;;;;6118250;23;20390;-81
2022/01/02 12:10:31;;;;;;;85.43;50.53;;;;;;;;;;6119052;23;20385;-81
2022/01/02 12:13:16;;;;;;;76.03;50.85;;;;;;;;;;6118565;23;20878;-81
2022/01/02 12:16:09;;;;;;;81.50;51.17;;;;;;;;;;6116264;23;20378;-81
2022/01/02 12:18:56;;;;;;;83.85;52.83;;;;;;;;;;6118804;23;20405;-81
2022/01/02 12:21:23;;;;;;;78.70;51.03;;;;;;;;;;6118948;23;20445;-81
2022/01/02 12:23:53;;;;;;;78.20;50.83;;;;;;;;;;6117949;23;20397;-80
2022/01/02 12:26:22;;;;;;;73.90;49.58;;;;;;;;;;6118739;23;20359;-81
2022/01/02 12:28:56;;;;;;;75.78;49.38;;;;;;;;;;6118830;23;20378;-81
2022/01/02 12:31:27;;;;;;;80.78;49.00;;;;;;;;;;6118507;23;20458;-82
2022/01/02 12:33:58;;;;;;;87.57;49.20;;;;;;;;;;6118233;23;20410;-81
2022/01/02 12:36:24;;;;;;;71.47;47.05;;;;;;;;;;6118632;23;20895;-81
2022/01/02 12:38:53;;;;;;;70.87;46.33;;;;;;;;;;6118495;23;21407;-81
2022/01/02 12:41:21;;;;;;;73.00;48.57;;;;;;;;;;6118629;23;20366;-81
2022/01/02 12:43:54;;;;;;;77.40;50.33;;;;;;;;;;6118581;23;20440;-81
2022/01/02 12:46:39;;;;;;;87.20;52.50;;;;;;;;;;6118328;23;20420;-80
2022/01/02 12:49:08;;;;;;;92.18;55.58;;;;;;;;;;6117466;23;20367;-80
2022/01/02 12:51:37;;;;;;;81.47;52.78;;;;;;;;;;6117956;23;20432;-81
2022/01/02 12:54:06;;;;;;;110.97;53.58;;;;;;;;;;6117927;23;20367;-81
2022/01/02 12:56:38;;;;;;;98.60;53.80;;;;;;;;;;6117916;23;20732;-80
2022/01/02 12:59:21;;;;;;;75.68;51.08;;;;;;;;;;6117066;23;20371;-80
2022/01/02 13:02:06;;;;;;;71.75;49.70;;;;;;;;;;6116511;23;20446;-80
2022/01/02 13:04:34;;;;;;;75.85;49.83;;;;;;;;;;6117128;23;20449;-81
2022/01/02 13:07:03;;;;;;;79.38;50.25;;;;;;;;;;6116106;23;20444;-81
2022/01/02 13:09:33;;;;;;;74.07;49.38;;;;;;;;;;6117877;23;20371;-81
2022/01/02 13:12:02;;;;;;;73.55;47.08;;;;;;;;;;6116512;23;20410;-81
2022/01/02 13:14:42;;;;;;;76.90;47.72;;;;;;;;;;6118667;23;20371;-82
2022/01/02 13:17:12;;;;;;;80.35;48.72;;;;;;;;;;6120015;23;20366;-82
2022/01/02 13:19:41;;;;;;;110.57;48.90;;;;;;;;;;6135436;23;20418;-82
2022/01/02 13:22:09;;;;;;;102.38;51.75;;;;;;;;;;6123074;23;20363;-83
2022/01/02 13:24:38;;;;;;;92.85;49.78;;;;;;;;;;6116747;23;20751;-83
2022/01/02 13:27:07;;;;;;;96.53;49.95;;;;;;;;;;6117186;23;20426;-81
2022/01/02 13:29:35;;;;;;;88.00;51.72;;;;;;;;;;6117318;23;20367;-82
2022/01/02 13:32:15;;;;;;;77.88;50.90;;;;;;;;;;6128786;23;20398;-87
2022/01/02 13:34:43;;;;;;;91.67;52.80;;;;;;;;;;6123965;23;20773;-87
2022/01/02 13:37:11;;;;;;;85.80;50.58;;;;;;;;;;6117348;23;20378;-87
2022/01/02 13:39:40;;;;;;;82.63;50.00;;;;;;;;;;6119515;23;20383;-87
2022/01/02 13:42:07;;;;;;;99.80;49.70;;;;;;;;;;6119247;23;21201;-86
2022/01/02 13:44:40;;;;;;;76.50;48.30;;;;;;;;;;6117203;23;20389;-87
2022/01/02 13:47:07;;;;;;;78.90;48.78;;;;;;;;;;6115942;23;20387;-85
2022/01/02 13:49:42;;;;;;;80.03;47.40;;;;;;;;;;6115921;23;20396;-85
2022/01/02 13:52:09;;;;;;;86.63;48.13;;;;;;;;;;6117954;23;20371;-85
2022/01/02 13:54:36;;;;;;;84.25;48.67;;;;;;;;;;6114666;23;20391;-85
2022/01/02 13:57:04;;;;;;;75.32;48.67;;;;;;;;;;6118086;23;20379;-87
2022/01/02 13:59:31;;;;;;;78.13;48.75;;;;;;;;;;6117075;23;20379;-87
2022/01/02 14:01:59;;;;;;;79.38;48.38;;;;;;;;;;6114872;23;20379;-84
2022/01/02 14:04:26;;;;;;;88.80;52.33;;;;;;;;;;6116544;23;20386;-86
2022/01/02 14:06:53;;;;;;;81.95;49.15;;;;;;;;;;6110894;23;20379;-87
2022/01/02 14:09:20;;;;;;;78.07;48.38;;;;;;;;;;6115166;23;20847;-87
2022/01/02 14:11:53;;;;;;;86.63;47.05;;;;;;;;;;6116494;23;20422;-86
2022/01/02 14:14:23;;;;;;;84.35;47.03;;;;;;;;;;6116602;23;20363;-85
2022/01/02 14:17:15;;;;;;;77.10;45.08;;;;;;;;;;6116080;23;20410;-85
2022/01/02 14:19:45;;;;;;;84.23;40.97;;;;;;;;;;6118118;23;21069;-90
2022/01/02 14:22:15;;;;;;;66.72;40.13;;;;;;;;;;6111867;23;21069;-85
2022/01/02 14:24:42;;;;;;;70.88;39.90;;;;;;;;;;6090123;23;20402;-84
2022/01/02 14:27:13;;;;;;;73.15;40.60;;;;;;;;;;6114998;23;21050;-82
2022/01/02 14:29:40;;;;;;;66.00;40.85;;;;;;;;;;6114639;23;20413;-84
2022/01/02 14:32:07;;;;;;;86.10;40.55;;;;;;;;;;6112680;23;20477;-84
2022/01/02 14:34:35;;;;;;;69.95;39.60;;;;;;;;;;6114765;23;20371;-84